AirNav   Free Bose QuietComfort 20
 
 941 users online  

3PA5 Davis Family Furniture Heliport
Adamsburg, Pennsylvania, USA

GOING TO ADAMSBURG?


FAA INFORMATION EFFECTIVE 05 DECEMBER 2019

Location

FAA Identifier: 3PA5
Lat/Long: 40-18-37.2490N 079-39-18.1530W
40-18.620817N 079-39.302550W
40.3103469,-79.6550425
(estimated)
Elevation: 1000 ft. / 305 m (estimated)
Variation: 08W (1985)
From city: 1 mile NW of ADAMSBURG, PA
Time zone: UTC -5 (UTC -4 during Daylight Saving Time)
Zip code: 15644

Heliport Operations

Heliport use: Private use. Permission required prior to landing
Activation date: 08/1991
Control tower: no
ARTCC: CLEVELAND CENTER
FSS: ALTOONA FLIGHT SERVICE STATION
Attendance: DAYLIGHT HOURS
Wind indicator: yes
Segmented circle: no

Heliport Communications

WX AWOS-3 at FWQ (10 nm SW): 118.475 (724-379-5815)
WX AWOS-3 at LBE (11 nm E): 118.375 (724-539-0671)
WX ASOS at AGC (13 nm W): PHONE 412-466-8968
WX AWOS-A at 42PN (18 nm NW): PHONE 412-442-2213

Nearby radio navigation aids

VOR radial/distance  VOR name  Freq  Var
AGCr093/17.8ALLEGHENY VOR/DME110.0009W
IHDr332/24.3INDIAN HEAD VORTAC108.2006W
JSTr275/37.6JOHNSTOWN VOR/DME113.0006W
EWCr149/40.0ELLWOOD CITY VOR/DME115.8008W

 
NDB name  Hdg/Dist  Freq  Var  ID
STOYSTOWN302/36.420910WSYS ... -.-- ...

Heliport Services

Runway Information

Helipad H1

Dimensions: 60 x 60 ft. / 18 x 18 m
Surface: turf
Traffic pattern: leftleft

Heliport Ownership and Management from official FAA records

Ownership: Privately-owned
Owner: ROBERT B. DAVIS
PO BOX 271
ADAMSBURG, PA 15611
Phone 412-837-9100
Manager: ROBERT B. DAVIS
PO BOX 271
ADAMSBURG, PA 15611
Phone 412-523-3900

Heliport Operational Statistics

Aircraft based on the field: 1
Helicopters: 1
    

Additional Remarks

FOR CD CTC PITTSBURGH APCH AT 412-472-5591

Instrument Procedures

There are no published instrument procedures at 3PA5.

Some nearby airports with instrument procedures:

KFWQ - Rostraver Airport (10 nm SW)
KLBE - Arnold Palmer Regional Airport (11 nm E)
KAGC - Allegheny County Airport (13 nm W)
G05 - Finleyville Airpark (17 nm W)
KVVS - Joseph A Hardy Connellsville Airport (21 nm S)
 
Loc | Ops | Rwys | IFR | FBO | Links
Com | Nav | Svcs | Stats | Notes
Area around 3PA5 (Davis Family Furniture Heliport)
 
Road maps at: MapQuest Bing Google
 
Aerial photo
No photo
 
Sectional chart

 
Airport distance calculator
Flying to Davis Family Furniture Heliport? Find the distance to fly.

From to 3PA5

Sunrise and sunset
Times for 12-Dec-2019
 Local
(UTC-5)
 Zulu
(UTC)
Morning civil twilight07:0212:02
Sunrise07:3312:33
Sunset16:5221:52
Evening civil twilight17:2222:22

Current date and time
Zulu (UTC)  12-Dec-2019 23:45:29
Local (UTC-5)  12-Dec-2019 18:45:29
 
METAR
KP53 
10nm SW 
122256Z AUTO 05006KT M06/M08 A3005 RMK AO1 SLP190 P0001 T10561078
KLBE 
12nm E 
122251Z 15005KT 10SM SKC 01/M09 A3045
KAGC 
12nm W 
122253Z 00000KT 10SM CLR 01/M08 A3041 RMK AO2 SLP320 T00061078
TAF
KLBE 
12nm E 
121722Z 1218/1318 18005KT P6SM BKN250 FM131600 14005KT P6SM VCSH BKN040
KAGC 
12nm W 
121722Z 1218/1318 16005KT P6SM BKN250 FM131600 00000KT P6SM VCSH BKN050
NOTAMs
Click for the latest NOTAMs
NOTAMs are issued by the DoD/FAA and will open in a separate window not controlled by AirNav.

 

 
 

Would you like to see your business listed on this page?

 If your business provides an interesting product or service to pilots, flight crews, aircraft, or users of the Davis Family Furniture Heliport, you should consider listing it here.  To start the listing process, click on the button below
 
Add a business
 

Other Pages about Davis Family Furniture Heliport

Update a link
 
Copyright © AirNav, LLC. All rights reserved. Privacy Policy  Contact